Time;durP1;ratioP1;P1;durP2;ratioP2;P2;SDS_P1;SDS_P2;PMS_P1;PMS_P2;Temp;Humidity;BMP_temperature;BMP_pressure;BME280_temperature;BME280_humidity;BME280_pressure;Samples;Min_cycle;Max_cycle;Signal;HPM_P1;HPM_P2
2022/09/09 00:02:10;;;;;;;0.32;0.32;;;15.60;82.00;;;;;;5095078;28;20047;-79
2022/09/09 00:04:38;;;;;;;0.85;0.30;;;15.70;82.10;;;;;;5132568;28;20044;-78
2022/09/09 00:07:25;;;;;;;0.20;0.20;;;15.60;82.00;;;;;;5111979;28;20035;-78
2022/09/09 00:10:13;;;;;;;0.40;0.40;;;15.60;82.20;;;;;;5132309;28;20057;-79
2022/09/09 00:12:55;;;;;;;0.30;0.30;;;15.60;82.10;;;;;;5111241;28;20071;-78
2022/09/09 00:15:27;;;;;;;0.30;0.30;;;15.60;82.20;;;;;;5111082;28;20040;-78
2022/09/09 00:18:11;;;;;;;0.20;0.20;;;15.60;82.20;;;;;;5110401;28;20043;-78
2022/09/09 00:20:47;;;;;;;0.47;0.40;;;15.60;82.20;;;;;;5130091;28;20039;-78
2022/09/09 00:23:28;;;;;;;0.20;0.20;;;15.60;82.30;;;;;;5110606;28;20064;-77
2022/09/09 00:26:29;;;;;;;0.97;0.30;;;15.70;82.40;;;;;;5134087;28;20131;-77
2022/09/09 00:29:12;;;;;;;0.20;0.20;;;15.70;82.40;;;;;;5115392;28;20289;-77
2022/09/09 00:31:38;;;;;;;0.20;0.20;;;15.70;82.30;;;;;;5132844;28;20513;-77
2022/09/09 00:34:14;;;;;;;0.30;0.20;;;15.60;82.20;;;;;;5132859;28;20036;-78
2022/09/09 00:36:41;;;;;;;0.30;0.30;;;15.80;82.30;;;;;;5114178;28;20035;-78
2022/09/09 00:39:25;;;;;;;0.38;0.38;;;15.70;82.30;;;;;;5131277;28;20024;-77
2022/09/09 00:42:23;;;;;;;0.25;0.25;;;15.60;82.40;;;;;;5113653;28;20042;-77
2022/09/09 00:44:58;;;;;;;0.10;0.10;;;15.70;82.50;;;;;;5118561;28;20107;-78
2022/09/09 00:47:53;;;;;;;0.20;0.20;;;15.70;82.50;;;;;;5135112;28;20143;-77
2022/09/09 00:50:49;;;;;;;0.20;0.20;;;15.70;82.50;;;;;;5112493;28;20048;-77
2022/09/09 00:53:47;;;;;;;0.10;0.10;;;15.60;82.50;;;;;;5118467;28;20047;-77
2022/09/09 00:56:16;;;;;;;0.20;0.20;;;15.60;82.50;;;;;;5133384;28;20443;-77
2022/09/09 00:58:59;;;;;;;0.20;0.20;;;15.60;82.50;;;;;;5133599;28;20028;-76
2022/09/09 01:01:25;;;;;;;0.15;0.15;;;15.50;82.60;;;;;;5131183;28;20073;-77
2022/09/09 01:03:58;;;;;;;0.20;0.20;;;15.60;82.70;;;;;;5113332;28;20043;-77
2022/09/09 01:06:34;;;;;;;0.32;0.20;;;15.60;82.70;;;;;;5113937;28;20054;-77
2022/09/09 01:09:10;;;;;;;0.30;0.30;;;15.50;82.80;;;;;;5128596;28;20059;-78
2022/09/09 01:11:57;;;;;;;0.20;0.20;;;15.50;82.80;;;;;;5128546;28;20039;-78
2022/09/09 01:14:45;;;;;;;1.23;0.20;;;15.50;83.00;;;;;;5113917;28;20049;-77
2022/09/09 01:17:20;;;;;;;0.20;0.20;;;15.50;83.00;;;;;;5131878;28;20040;-77
2022/09/09 01:20:04;;;;;;;0.15;0.15;;;15.40;83.00;;;;;;5127218;28;20039;-77
2022/09/09 01:22:39;;;;;;;0.20;0.20;;;15.40;83.10;;;;;;5109893;28;20069;-77
2022/09/09 01:25:25;;;;;;;0.30;0.30;;;15.40;83.10;;;;;;5120143;28;20055;-77
2022/09/09 01:27:55;;;;;;;0.20;0.20;;;15.30;83.20;;;;;;5118611;28;20102;-77
2022/09/09 01:30:22;;;;;;;0.20;0.20;;;15.10;83.00;;;;;;5132962;28;20074;-77
2022/09/09 01:32:53;;;;;;;0.17;0.17;;;15.30;83.30;;;;;;5131948;28;20091;-77
2022/09/09 01:35:41;;;;;;;0.50;0.20;;;15.30;83.30;;;;;;5114215;28;20063;-78
2022/09/09 01:38:07;;;;;;;0.25;0.20;;;15.20;83.30;;;;;;5136179;28;20058;-77
2022/09/09 01:40:33;;;;;;;0.82;0.17;;;15.20;83.30;;;;;;5136894;28;20044;-77
2022/09/09 01:42:59;;;;;;;0.20;0.20;;;15.20;83.30;;;;;;5116784;28;20054;-77
2022/09/09 01:45:25;;;;;;;0.20;0.20;;;15.10;83.30;;;;;;5135985;28;20031;-77
2022/09/09 01:47:52;;;;;;;0.10;0.10;;;15.10;83.30;;;;;;5135811;28;20036;-78
2022/09/09 01:50:19;;;;;;;0.10;0.10;;;15.10;83.40;;;;;;5135218;28;20133;-77
2022/09/09 01:52:49;;;;;;;0.47;0.20;;;15.00;83.50;;;;;;5116694;28;20039;-77
2022/09/09 01:55:15;;;;;;;0.20;0.20;;;15.00;83.60;;;;;;5132632;28;20036;-77
2022/09/09 01:58:15;;;;;;;0.20;0.20;;;15.00;83.60;;;;;;5098237;28;20050;-77
2022/09/09 02:00:48;;;;;;;0.10;0.10;;;14.90;83.60;;;;;;5133079;28;20073;-78
2022/09/09 02:03:26;;;;;;;0.20;0.20;;;14.90;83.50;;;;;;5131092;28;20047;-77
2022/09/09 02:06:16;;;;;;;0.20;0.20;;;14.90;83.60;;;;;;5113620;28;20047;-77
2022/09/09 02:08:48;;;;;;;0.20;0.20;;;14.80;83.60;;;;;;5132766;28;20050;-78
2022/09/09 02:11:17;;;;;;;0.20;0.20;;;14.90;84.30;;;;;;5132610;28;20043;-77
2022/09/09 02:13:47;;;;;;;0.20;0.20;;;14.80;83.60;;;;;;5133465;28;20145;-77
2022/09/09 02:16:23;;;;;;;0.20;0.20;;;14.80;83.60;;;;;;5136238;28;20051;-77
2022/09/09 02:18:57;;;;;;;0.13;0.13;;;14.80;83.70;;;;;;5133531;28;20042;-77
2022/09/09 02:21:25;;;;;;;0.65;0.30;;;14.80;83.70;;;;;;5115976;28;20095;-77
2022/09/09 02:23:52;;;;;;;0.20;0.20;;;14.70;83.70;;;;;;5130399;28;20393;-77
2022/09/09 02:26:21;;;;;;;0.28;0.20;;;14.70;83.70;;;;;;5131749;28;20049;-77
2022/09/09 02:28:50;;;;;;;0.10;0.10;;;14.70;83.70;;;;;;5114531;28;20483;-77
2022/09/09 02:31:18;;;;;;;0.55;0.20;;;14.70;83.70;;;;;;5114232;28;20046;-77
2022/09/09 02:33:49;;;;;;;0.20;0.20;;;14.70;83.70;;;;;;5096705;28;20043;-77
2022/09/09 02:36:16;;;;;;;0.20;0.20;;;14.70;83.70;;;;;;5131980;28;20040;-77
2022/09/09 02:38:50;;;;;;;0.25;0.25;;;14.70;83.70;;;;;;5113242;28;20052;-77
2022/09/09 02:41:19;;;;;;;0.40;0.30;;;14.60;83.70;;;;;;5112398;28;20043;-77
2022/09/09 02:43:45;;;;;;;0.43;0.20;;;14.60;83.70;;;;;;5126548;28;20039;-77
2022/09/09 02:46:47;;;;;;;0.20;0.20;;;14.60;83.70;;;;;;5124952;28;20035;-78
2022/09/09 02:49:26;;;;;;;0.20;0.20;;;14.50;83.80;;;;;;5113996;28;20052;-77
2022/09/09 02:52:16;;;;;;;0.30;0.30;;;14.50;83.90;;;;;;5111654;28;20035;-77
2022/09/09 02:54:43;;;;;;;0.22;0.22;;;14.50;83.90;;;;;;5114247;28;20028;-77
2022/09/09 02:57:24;;;;;;;0.20;0.20;;;14.50;83.90;;;;;;5133274;28;20027;-77
2022/09/09 02:59:52;;;;;;;0.20;0.20;;;14.40;83.90;;;;;;5131213;28;20078;-77
2022/09/09 03:02:18;;;;;;;0.20;0.20;;;14.40;83.90;;;;;;5113252;28;20489;-77
2022/09/09 03:04:44;;;;;;;0.32;0.30;;;14.50;84.00;;;;;;5113146;28;20094;-77
2022/09/09 03:07:11;;;;;;;0.20;0.20;;;14.40;84.00;;;;;;5130601;28;20127;-77
2022/09/09 03:09:37;;;;;;;0.20;0.20;;;14.40;84.00;;;;;;5130824;28;20027;-77
2022/09/09 03:12:04;;;;;;;0.20;0.20;;;14.40;84.00;;;;;;5112060;28;20379;-77
2022/09/09 03:14:30;;;;;;;0.43;0.20;;;14.40;83.90;;;;;;5129712;28;20052;-77
2022/09/09 03:17:00;;;;;;;0.20;0.20;;;14.40;84.00;;;;;;5127774;28;20040;-77
2022/09/09 03:19:27;;;;;;;0.20;0.20;;;14.40;84.00;;;;;;5109841;28;20047;-77
2022/09/09 03:21:54;;;;;;;0.20;0.20;;;14.40;84.00;;;;;;5109011;28;20055;-77
2022/09/09 03:24:19;;;;;;;0.45;0.20;;;14.40;84.00;;;;;;5092031;28;20047;-77
2022/09/09 03:26:46;;;;;;;0.15;0.15;;;14.40;84.00;;;;;;5109086;28;20035;-77
2022/09/09 03:29:12;;;;;;;0.75;0.20;;;14.40;84.10;;;;;;5125992;28;20040;-77
2022/09/09 03:31:39;;;;;;;0.20;0.20;;;14.40;84.10;;;;;;5128106;28;20466;-77
2022/09/09 03:34:05;;;;;;;0.20;0.20;;;14.30;84.00;;;;;;5108405;28;20081;-77
2022/09/09 03:36:32;;;;;;;0.35;0.30;;;14.30;84.00;;;;;;5127340;28;20167;-77
2022/09/09 03:38:59;;;;;;;0.20;0.20;;;14.30;84.00;;;;;;5124214;28;20068;-78
2022/09/09 03:41:26;;;;;;;0.20;0.20;;;14.30;84.10;;;;;;5123267;28;20040;-77
2022/09/09 03:43:52;;;;;;;0.20;0.20;;;14.30;84.10;;;;;;5123536;28;20032;-77
2022/09/09 03:46:19;;;;;;;0.20;0.20;;;14.30;84.00;;;;;;5071952;28;20053;-77
2022/09/09 03:48:45;;;;;;;0.20;0.20;;;14.30;84.00;;;;;;5115440;28;20100;-78
2022/09/09 03:51:11;;;;;;;0.30;0.30;;;14.30;84.00;;;;;;5114946;28;20020;-77
2022/09/09 03:53:37;;;;;;;0.40;0.30;;;14.30;84.10;;;;;;5133426;28;20044;-77
2022/09/09 03:56:06;;;;;;;0.20;0.20;;;14.30;84.50;;;;;;5133523;28;20047;-77
2022/09/09 03:58:33;;;;;;;0.20;0.20;;;14.40;84.20;;;;;;5134161;28;20114;-77
2022/09/09 04:01:01;;;;;;;0.30;0.30;;;14.40;84.20;;;;;;5133574;28;20115;-77
2022/09/09 04:03:28;;;;;;;0.30;0.20;;;14.40;84.10;;;;;;5134697;28;20044;-77
2022/09/09 04:05:56;;;;;;;0.30;0.30;;;14.40;84.00;;;;;;5116083;28;20536;-77
2022/09/09 04:08:22;;;;;;;0.15;0.15;;;14.50;84.00;;;;;;5134269;28;20095;-77
2022/09/09 04:10:49;;;;;;;0.80;0.38;;;14.50;84.00;;;;;;5135457;28;20062;-77
2022/09/09 04:13:16;;;;;;;0.20;0.20;;;14.50;84.00;;;;;;5117304;28;20055;-78
2022/09/09 04:15:43;;;;;;;0.20;0.20;;;14.70;84.00;;;;;;5116655;28;20044;-77
2022/09/09 04:18:09;;;;;;;0.40;0.40;;;14.60;83.90;;;;;;5140311;28;20035;-77
2022/09/09 04:20:35;;;;;;;0.20;0.20;;;14.60;83.80;;;;;;5122342;28;20073;-78
2022/09/09 04:23:01;;;;;;;0.20;0.20;;;14.60;83.80;;;;;;5139787;28;20023;-77
2022/09/09 04:25:27;;;;;;;0.30;0.30;;;14.70;83.90;;;;;;5103767;28;20084;-77
2022/09/09 04:27:57;;;;;;;0.20;0.20;;;14.70;83.90;;;;;;5120382;28;20036;-78
2022/09/09 04:30:24;;;;;;;0.30;0.30;;;14.70;83.90;;;;;;5120352;28;20050;-78
2022/09/09 04:32:50;;;;;;;0.20;0.20;;;14.70;83.90;;;;;;5133187;28;20043;-77
2022/09/09 04:35:16;;;;;;;0.47;0.30;;;14.80;84.00;;;;;;5132307;28;20032;-77
2022/09/09 04:37:42;;;;;;;0.30;0.30;;;14.80;84.00;;;;;;5128849;28;20039;-77
2022/09/09 04:40:09;;;;;;;0.30;0.30;;;14.80;83.90;;;;;;5111633;28;20146;-77
2022/09/09 04:42:36;;;;;;;0.32;0.32;;;14.80;83.90;;;;;;5131903;28;20512;-77
2022/09/09 04:45:03;;;;;;;0.80;0.40;;;14.80;83.90;;;;;;5135278;28;20046;-77
2022/09/09 04:47:28;;;;;;;0.40;0.40;;;14.80;83.90;;;;;;5135153;28;20040;-77
2022/09/09 04:49:54;;;;;;;0.77;0.43;;;14.90;83.90;;;;;;5101530;28;20476;-77
2022/09/09 04:52:21;;;;;;;0.43;0.30;;;14.90;83.90;;;;;;5137108;28;20031;-78
2022/09/09 04:54:47;;;;;;;0.32;0.28;;;14.90;83.90;;;;;;5134704;28;20552;-77
2022/09/09 04:57:13;;;;;;;0.38;0.38;;;15.00;83.90;;;;;;5118003;28;20050;-78
2022/09/09 04:59:39;;;;;;;0.50;0.32;;;15.00;84.00;;;;;;5137434;28;20067;-77
2022/09/09 05:02:06;;;;;;;0.80;0.45;;;15.00;83.90;;;;;;5136771;28;20537;-77
2022/09/09 05:04:33;;;;;;;0.70;0.40;;;15.10;84.00;;;;;;5134508;28;20051;-77
2022/09/09 05:06:59;;;;;;;0.40;0.40;;;15.00;83.90;;;;;;5111964;28;20051;-77
2022/09/09 05:09:25;;;;;;;0.30;0.30;;;15.00;83.90;;;;;;5136186;28;20050;-77
2022/09/09 05:11:51;;;;;;;0.40;0.40;;;15.10;83.90;;;;;;5136002;28;20031;-78
2022/09/09 05:14:17;;;;;;;0.82;0.40;;;15.10;83.90;;;;;;5135626;28;20012;-77
2022/09/09 05:16:45;;;;;;;0.47;0.38;;;15.20;84.00;;;;;;5113042;28;20116;-77
2022/09/09 05:19:11;;;;;;;1.00;0.40;;;15.20;84.00;;;;;;5133848;28;20061;-78
2022/09/09 05:21:37;;;;;;;0.85;0.47;;;15.10;84.60;;;;;;5096808;28;20035;-78
2022/09/09 05:24:03;;;;;;;0.30;0.30;;;15.20;84.00;;;;;;5096796;28;20043;-78
2022/09/09 05:26:29;;;;;;;0.88;0.50;;;15.30;84.00;;;;;;5114060;28;20043;-78
2022/09/09 05:28:55;;;;;;;0.88;0.50;;;15.20;84.00;;;;;;5130315;28;20122;-77
2022/09/09 05:31:21;;;;;;;1.90;0.40;;;15.30;84.10;;;;;;5093694;28;20046;-78
2022/09/09 05:33:49;;;;;;;0.95;0.50;;;15.30;84.10;;;;;;5123116;28;20042;-78
2022/09/09 05:36:18;;;;;;;0.77;0.40;;;15.30;84.10;;;;;;5110246;28;20071;-78
2022/09/09 05:38:44;;;;;;;0.82;0.55;;;15.30;84.10;;;;;;5111909;28;20035;-78
2022/09/09 05:41:11;;;;;;;1.42;0.50;;;15.30;84.20;;;;;;5111420;28;20138;-79
2022/09/09 05:43:38;;;;;;;1.20;0.55;;;15.30;84.20;;;;;;5110048;28;20081;-79
2022/09/09 05:46:08;;;;;;;2.20;0.40;;;15.30;84.30;;;;;;5081713;28;20046;-80
2022/09/09 05:48:38;;;;;;;0.52;0.50;;;15.40;84.30;;;;;;5114373;28;20044;-79
2022/09/09 05:51:08;;;;;;;1.35;0.50;;;15.40;84.40;;;;;;5099287;28;20085;-78
2022/09/09 05:53:34;;;;;;;0.65;0.43;;;15.40;84.40;;;;;;5130177;28;20027;-78
2022/09/09 05:56:11;;;;;;;0.63;0.52;;;15.40;84.40;;;;;;5094660;28;20047;-78
2022/09/09 05:58:37;;;;;;;0.85;0.40;;;15.40;84.40;;;;;;5112448;28;20043;-78
2022/09/09 06:01:06;;;;;;;1.20;0.50;;;15.40;84.40;;;;;;5110165;28;20043;-79
2022/09/09 06:03:34;;;;;;;1.55;0.50;;;15.40;84.40;;;;;;5093773;28;20062;-78
2022/09/09 06:06:04;;;;;;;1.02;0.38;;;15.40;84.40;;;;;;5130453;28;20057;-78
2022/09/09 06:08:31;;;;;;;0.32;0.22;;;15.50;84.50;;;;;;5131349;28;20051;-78
2022/09/09 06:11:12;;;;;;;0.32;0.30;;;15.40;84.40;;;;;;5130808;28;20054;-78
2022/09/09 06:13:39;;;;;;;0.40;0.40;;;15.50;84.50;;;;;;5111663;28;20040;-79
2022/09/09 06:16:11;;;;;;;0.93;0.40;;;15.60;84.40;;;;;;5112815;28;20099;-78
2022/09/09 06:18:38;;;;;;;0.85;0.40;;;15.60;84.40;;;;;;5125902;28;20081;-80
2022/09/09 06:21:06;;;;;;;0.50;0.40;;;15.60;84.30;;;;;;5099021;28;20126;-78
2022/09/09 06:23:35;;;;;;;0.95;0.40;;;15.70;84.30;;;;;;5113579;28;20122;-78
2022/09/09 06:26:05;;;;;;;1.40;0.50;;;15.70;84.30;;;;;;5113573;28;20100;-78
2022/09/09 06:28:32;;;;;;;0.63;0.60;;;15.70;84.20;;;;;;5097712;28;20047;-80
2022/09/09 06:31:00;;;;;;;0.57;0.50;;;15.70;84.10;;;;;;5085085;28;20485;-78
2022/09/09 06:33:27;;;;;;;1.27;0.50;;;15.80;84.10;;;;;;5113867;28;20085;-78
2022/09/09 06:35:54;;;;;;;0.60;0.60;;;15.80;84.10;;;;;;5108950;28;20070;-79
2022/09/09 06:38:22;;;;;;;0.68;0.38;;;15.80;84.00;;;;;;5103832;28;20451;-77
2022/09/09 06:40:54;;;;;;;0.80;0.57;;;15.80;84.00;;;;;;5120317;28;20063;-78
2022/09/09 06:43:20;;;;;;;1.58;0.50;;;15.80;84.10;;;;;;5107843;28;20030;-77
2022/09/09 06:45:56;;;;;;;0.88;0.60;;;15.90;84.20;;;;;;5089430;28;20035;-78
2022/09/09 06:48:21;;;;;;;1.38;0.73;;;15.90;84.20;;;;;;5099560;28;20056;-77
2022/09/09 06:50:49;;;;;;;1.30;0.60;;;15.80;84.10;;;;;;5120147;28;20046;-79
2022/09/09 06:53:18;;;;;;;1.48;0.70;;;15.90;84.20;;;;;;5124934;28;20039;-77
2022/09/09 06:55:45;;;;;;;1.55;0.68;;;15.90;84.20;;;;;;5122078;28;20070;-78
2022/09/09 06:58:11;;;;;;;1.15;0.60;;;15.90;84.20;;;;;;5101746;28;20473;-78
2022/09/09 07:00:38;;;;;;;1.02;0.80;;;15.90;84.20;;;;;;5123814;28;20042;-77
2022/09/09 07:03:05;;;;;;;0.60;0.60;;;16.00;84.20;;;;;;5086330;28;20516;-77
2022/09/09 07:05:32;;;;;;;1.35;0.90;;;16.00;84.10;;;;;;5102385;28;20039;-78
2022/09/09 07:07:58;;;;;;;1.20;0.60;;;16.10;84.10;;;;;;5118956;28;20051;-77
2022/09/09 07:10:24;;;;;;;1.15;0.60;;;16.10;84.10;;;;;;5119305;28;20054;-78
2022/09/09 07:12:52;;;;;;;1.00;0.68;;;16.10;84.00;;;;;;5122507;28;20035;-78
2022/09/09 07:15:19;;;;;;;1.48;0.70;;;16.20;83.90;;;;;;5103048;28;20035;-77
2022/09/09 07:17:45;;;;;;;0.90;0.60;;;16.20;83.90;;;;;;5105833;28;20081;-77
2022/09/09 07:20:11;;;;;;;1.30;0.80;;;16.30;83.90;;;;;;5122801;28;20505;-78
2022/09/09 07:22:37;;;;;;;0.82;0.68;;;16.20;83.90;;;;;;5125693;28;20023;-78
2022/09/09 07:25:04;;;;;;;2.58;0.70;;;16.20;84.00;;;;;;5120316;28;20123;-78
2022/09/09 07:27:30;;;;;;;2.05;0.80;;;16.30;83.90;;;;;;5099943;28;20097;-77
2022/09/09 07:29:57;;;;;;;1.25;0.70;;;16.40;83.80;;;;;;5095790;28;20062;-76
2022/09/09 07:32:23;;;;;;;1.35;0.68;;;16.40;83.70;;;;;;5117518;28;20032;-77
2022/09/09 07:34:50;;;;;;;1.80;0.90;;;16.40;83.70;;;;;;5115983;28;20082;-76
2022/09/09 07:37:16;;;;;;;1.20;0.70;;;16.50;83.60;;;;;;5100769;28;20027;-76
2022/09/09 07:39:42;;;;;;;2.55;0.90;;;16.60;83.50;;;;;;5114653;28;20958;-76
2022/09/09 07:42:09;;;;;;;2.90;0.90;;;16.60;83.30;;;;;;5096548;28;20048;-76
2022/09/09 07:44:36;;;;;;;2.13;0.93;;;16.70;83.20;;;;;;5116712;28;20042;-75
2022/09/09 07:47:02;;;;;;;2.85;0.90;;;16.70;83.20;;;;;;5114676;28;20066;-76
2022/09/09 07:49:28;;;;;;;3.83;1.00;;;16.90;83.10;;;;;;5114364;28;20067;-76
2022/09/09 07:51:54;;;;;;;2.00;0.80;;;16.90;82.90;;;;;;5096750;28;20035;-76
2022/09/09 07:54:23;;;;;;;1.05;0.63;;;16.90;82.90;;;;;;5114188;28;20500;-76
2022/09/09 07:56:49;;;;;;;1.48;0.77;;;16.90;82.80;;;;;;5096933;28;20032;-75
2022/09/09 07:59:16;;;;;;;0.95;0.50;;;17.00;82.80;;;;;;5115628;28;20494;-76
2022/09/09 08:01:45;;;;;;;1.50;0.80;;;17.00;82.70;;;;;;5079509;28;20039;-75
2022/09/09 08:04:15;;;;;;;1.13;0.60;;;17.10;82.70;;;;;;5096242;28;20032;-75
2022/09/09 08:06:43;;;;;;;0.82;0.60;;;17.10;82.70;;;;;;5115136;28;20036;-76
2022/09/09 08:09:10;;;;;;;1.23;0.88;;;17.20;82.50;;;;;;5114643;28;20489;-75
2022/09/09 08:11:36;;;;;;;2.00;0.80;;;17.20;82.40;;;;;;5094868;28;20374;-75
2022/09/09 08:14:03;;;;;;;0.70;0.63;;;17.20;82.50;;;;;;5114698;28;20044;-75
2022/09/09 08:16:32;;;;;;;1.42;0.75;;;17.20;82.70;;;;;;5095919;28;20096;-75
2022/09/09 08:18:59;;;;;;;2.50;0.70;;;17.10;82.60;;;;;;5114639;28;20063;-75
2022/09/09 08:21:27;;;;;;;0.95;0.80;;;17.20;82.70;;;;;;5097770;28;20048;-75
2022/09/09 08:23:55;;;;;;;1.55;0.77;;;17.20;82.60;;;;;;5114902;28;20510;-75
2022/09/09 08:26:23;;;;;;;2.33;0.88;;;17.20;82.60;;;;;;5116880;28;20126;-75
2022/09/09 08:28:51;;;;;;;0.93;0.60;;;17.30;82.50;;;;;;5098799;28;20047;-75
2022/09/09 08:31:21;;;;;;;1.88;1.00;;;17.30;82.40;;;;;;5118031;28;20043;-76
2022/09/09 08:33:48;;;;;;;1.95;0.73;;;17.30;82.30;;;;;;5115176;28;20036;-76
2022/09/09 08:36:16;;;;;;;1.45;0.80;;;17.30;82.30;;;;;;5115297;28;20050;-76
2022/09/09 08:38:43;;;;;;;2.70;0.70;;;17.30;82.30;;;;;;5114784;28;20055;-76
2022/09/09 08:41:27;;;;;;;3.05;0.80;;;17.40;82.40;;;;;;5079849;28;20047;-76
2022/09/09 08:44:06;;;;;;;3.15;0.77;;;17.30;82.20;;;;;;5114769;28;20088;-77
2022/09/09 08:46:58;;;;;;;1.25;0.73;;;17.40;82.20;;;;;;5095643;28;20493;-76
2022/09/09 08:50:02;;;;;;;1.95;0.70;;;17.40;82.20;;;;;;5097557;28;20040;-76
2022/09/09 08:52:35;;;;;;;0.45;0.35;;;17.40;82.20;;;;;;5080942;28;20492;-76
2022/09/09 08:55:21;;;;;;;2.28;0.70;;;17.40;81.90;;;;;;5096235;28;20032;-77
2022/09/09 08:57:48;;;;;;;0.50;0.50;;;17.50;81.90;;;;;;5113491;28;20055;-76
2022/09/09 09:00:14;;;;;;;3.20;0.77;;;17.50;81.80;;;;;;5096460;28;20063;-76
2022/09/09 09:02:55;;;;;;;2.55;0.80;;;17.60;81.50;;;;;;5079637;28;20058;-76
2022/09/09 09:05:39;;;;;;;1.20;0.70;;;17.60;81.30;;;;;;5095842;28;20069;-76
2022/09/09 09:08:30;;;;;;;0.65;0.63;;;17.60;81.30;;;;;;5113693;28;20047;-75
2022/09/09 09:11:00;;;;;;;1.45;0.88;;;17.70;81.20;;;;;;5112768;28;20043;-77
2022/09/09 09:13:43;;;;;;;2.42;0.80;;;17.80;80.80;;;;;;5096466;28;20032;-77
2022/09/09 09:16:19;;;;;;;2.17;0.70;;;17.90;80.60;;;;;;5096004;28;20043;-77
2022/09/09 09:18:45;;;;;;;2.33;0.80;;;17.90;80.50;;;;;;5096697;28;20040;-77
2022/09/09 09:21:41;;;;;;;2.15;1.00;;;18.00;80.50;;;;;;5114171;28;20071;-77
2022/09/09 09:24:18;;;;;;;2.25;0.50;;;17.90;80.50;;;;;;5095915;28;20547;-78
2022/09/09 09:26:44;;;;;;;2.10;0.85;;;18.00;80.60;;;;;;5113034;28;20040;-79
2022/09/09 09:29:14;;;;;;;1.35;0.70;;;18.00;80.60;;;;;;5114378;28;20401;-78
2022/09/09 09:31:47;;;;;;;1.10;0.70;;;17.80;80.50;;;;;;5079729;28;20044;-77
2022/09/09 09:34:13;;;;;;;2.20;0.70;;;17.80;80.60;;;;;;5113876;28;20047;-77
2022/09/09 09:36:44;;;;;;;1.27;0.70;;;17.80;80.60;;;;;;5113744;28;20350;-78
2022/09/09 09:39:10;;;;;;;1.23;0.52;;;17.80;80.50;;;;;;5096503;28;20046;-78
2022/09/09 09:41:42;;;;;;;1.92;0.70;;;17.80;80.40;;;;;;5114404;28;20039;-77
2022/09/09 09:44:31;;;;;;;1.25;0.63;;;17.90;80.30;;;;;;5113890;28;20096;-77
2022/09/09 09:47:15;;;;;;;1.48;0.57;;;17.90;80.20;;;;;;5078362;28;20046;-78
2022/09/09 09:49:55;;;;;;;1.60;0.77;;;18.00;80.00;;;;;;5095697;28;20055;-78
2022/09/09 09:52:24;;;;;;;0.93;0.60;;;18.30;79.80;;;;;;5095619;28;20367;-76
2022/09/09 09:54:52;;;;;;;1.00;0.60;;;18.30;79.50;;;;;;5113916;28;20039;-77
2022/09/09 09:57:22;;;;;;;1.48;0.70;;;18.50;79.30;;;;;;5114391;28;20084;-75
2022/09/09 09:59:48;;;;;;;2.05;0.73;;;18.50;78.90;;;;;;5113826;28;20047;-75
2022/09/09 10:02:17;;;;;;;1.48;0.63;;;18.50;78.80;;;;;;5114806;28;20044;-78
2022/09/09 10:04:45;;;;;;;1.23;0.63;;;18.60;78.90;;;;;;5115271;28;20050;-76
2022/09/09 10:07:16;;;;;;;2.03;0.70;;;18.50;79.00;;;;;;5095357;28;20048;-77
2022/09/09 10:09:42;;;;;;;1.52;0.88;;;18.40;79.10;;;;;;5097496;28;20062;-77
2022/09/09 10:12:45;;;;;;;2.50;0.70;;;18.30;79.20;;;;;;5096179;28;20552;-76
2022/09/09 10:15:36;;;;;;;0.82;0.50;;;18.30;79.40;;;;;;5112526;28;20042;-77
2022/09/09 10:18:25;;;;;;;0.95;0.60;;;18.20;79.50;;;;;;5099747;28;20040;-76
2022/09/09 10:21:23;;;;;;;1.73;0.50;;;18.20;79.50;;;;;;5094187;28;20389;-75
2022/09/09 10:24:22;;;;;;;1.23;0.60;;;18.10;79.60;;;;;;5095142;28;20447;-75
2022/09/09 10:27:03;;;;;;;1.35;0.68;;;18.10;79.70;;;;;;5112864;28;20043;-76
2022/09/09 10:30:08;;;;;;;1.70;0.77;;;18.10;79.60;;;;;;5078042;28;20039;-75
2022/09/09 10:32:55;;;;;;;1.85;0.80;;;18.20;79.50;;;;;;5095464;28;20131;-75
2022/09/09 10:35:31;;;;;;;2.28;0.75;;;18.20;79.20;;;;;;5096472;28;20036;-75
2022/09/09 10:38:21;;;;;;;0.82;0.60;;;18.30;79.10;;;;;;5093170;28;20031;-74
2022/09/09 10:41:06;;;;;;;2.05;0.75;;;18.30;79.00;;;;;;5098403;28;20046;-75
2022/09/09 10:44:06;;;;;;;1.08;0.65;;;18.20;79.00;;;;;;5094427;28;20059;-75
2022/09/09 10:46:49;;;;;;;1.52;0.65;;;18.30;79.00;;;;;;5112258;28;20048;-76
2022/09/09 10:49:46;;;;;;;1.05;0.70;;;18.10;79.10;;;;;;5111092;28;20118;-76
2022/09/09 10:52:23;;;;;;;1.00;0.60;;;18.10;79.30;;;;;;5099751;28;20456;-75
2022/09/09 10:55:14;;;;;;;2.03;0.70;;;18.20;79.40;;;;;;5079087;28;20031;-76
2022/09/09 10:57:44;;;;;;;1.35;0.73;;;18.30;79.30;;;;;;5093027;28;20499;-76
2022/09/09 11:00:45;;;;;;;2.85;1.13;;;18.30;78.80;;;;;;5114054;28;20108;-75
2022/09/09 11:03:24;;;;;;;1.60;0.70;;;18.30;78.70;;;;;;5112971;28;20050;-75
2022/09/09 11:05:56;;;;;;;1.95;0.70;;;18.30;78.70;;;;;;5113457;28;20066;-73
2022/09/09 11:08:25;;;;;;;2.17;0.88;;;18.30;78.70;;;;;;5113089;28;20043;-75
2022/09/09 11:11:02;;;;;;;1.13;0.70;;;18.30;78.60;;;;;;5112907;28;20119;-75
2022/09/09 11:13:43;;;;;;;2.47;0.88;;;18.40;78.60;;;;;;5092998;28;20039;-75
2022/09/09 11:16:38;;;;;;;1.77;0.88;;;18.30;78.40;;;;;;5112610;28;20031;-75
2022/09/09 11:19:13;;;;;;;2.28;0.73;;;18.30;78.60;;;;;;5111680;28;20114;-74
2022/09/09 11:21:45;;;;;;;0.93;0.82;;;18.10;78.90;;;;;;5094258;28;20075;-75
2022/09/09 11:24:22;;;;;;;1.98;0.80;;;18.10;79.40;;;;;;5094314;28;20040;-76
2022/09/09 11:26:56;;;;;;;1.73;0.68;;;18.10;79.60;;;;;;5093245;28;20063;-76
2022/09/09 11:29:38;;;;;;;0.95;0.60;;;18.10;79.70;;;;;;5112568;28;20130;-75
2022/09/09 11:32:33;;;;;;;2.00;0.90;;;18.10;79.60;;;;;;5111529;28;20401;-75
2022/09/09 11:35:23;;;;;;;1.00;0.70;;;18.20;79.50;;;;;;5092491;28;20375;-76
2022/09/09 11:38:07;;;;;;;1.23;0.83;;;18.20;79.70;;;;;;5111510;28;20124;-76
2022/09/09 11:40:33;;;;;;;0.60;0.60;;;18.40;79.40;;;;;;5097524;28;20047;-76
2022/09/09 11:43:12;;;;;;;1.27;0.68;;;18.40;79.20;;;;;;5114819;28;20562;-77
2022/09/09 11:45:40;;;;;;;2.15;0.90;;;18.50;79.00;;;;;;5114185;28;20139;-75
2022/09/09 11:48:32;;;;;;;2.05;0.85;;;18.40;79.00;;;;;;5077813;28;20071;-76
2022/09/09 11:51:00;;;;;;;1.80;0.75;;;18.50;79.30;;;;;;5112445;28;20397;-75
2022/09/09 11:53:27;;;;;;;1.92;0.70;;;18.40;79.20;;;;;;5112964;28;20054;-76
2022/09/09 11:56:07;;;;;;;1.35;0.70;;;18.30;79.40;;;;;;5113632;28;20032;-75
2022/09/09 11:58:40;;;;;;;1.35;0.93;;;18.20;79.80;;;;;;5112778;28;20139;-75
2022/09/09 12:01:25;;;;;;;0.95;0.60;;;18.10;80.10;;;;;;5097671;28;20043;-75
2022/09/09 12:04:05;;;;;;;1.15;0.65;;;18.10;80.60;;;;;;5116720;28;20070;-76
2022/09/09 12:06:32;;;;;;;1.52;0.50;;;18.30;80.50;;;;;;5098081;28;20040;-75
2022/09/09 12:09:23;;;;;;;0.68;0.60;;;18.30;80.40;;;;;;5117290;28;20032;-77
2022/09/09 12:11:49;;;;;;;1.48;0.80;;;18.50;80.20;;;;;;5102066;28;20044;-78
2022/09/09 12:14:36;;;;;;;1.13;0.73;;;18.60;79.80;;;;;;5082275;28;20043;-77
2022/09/09 12:17:19;;;;;;;1.50;0.65;;;18.50;79.80;;;;;;5117827;28;20055;-76
2022/09/09 12:19:46;;;;;;;1.15;0.60;;;18.40;79.90;;;;;;5118971;28;20040;-76
2022/09/09 12:22:30;;;;;;;2.05;0.73;;;18.30;80.20;;;;;;5118181;28;20044;-77
2022/09/09 12:25:17;;;;;;;0.40;0.40;;;18.30;80.60;;;;;;5116978;28;20044;-76
2022/09/09 12:27:56;;;;;;;0.82;0.75;;;18.30;80.80;;;;;;5114956;28;20189;-77
2022/09/09 12:30:23;;;;;;;1.85;0.52;;;18.30;80.70;;;;;;5094304;28;20052;-77
2022/09/09 12:33:02;;;;;;;2.47;0.70;;;18.30;80.80;;;;;;5080356;28;20130;-77
2022/09/09 12:35:30;;;;;;;0.93;0.70;;;18.40;80.70;;;;;;5080068;28;20051;-77
2022/09/09 12:38:01;;;;;;;0.70;0.70;;;18.50;80.30;;;;;;5080828;28;20028;-77
2022/09/09 12:40:29;;;;;;;2.22;0.80;;;18.50;80.10;;;;;;5115424;28;20092;-77
2022/09/09 12:42:55;;;;;;;0.80;0.70;;;18.60;80.00;;;;;;5115450;28;20084;-78
2022/09/09 12:45:25;;;;;;;1.60;0.70;;;18.60;80.00;;;;;;5095039;28;20044;-77
2022/09/09 12:47:57;;;;;;;0.47;0.47;;;18.80;79.90;;;;;;5097518;28;20122;-77
2022/09/09 12:50:27;;;;;;;0.50;0.40;;;18.70;79.70;;;;;;5097319;28;20044;-79
2022/09/09 12:52:59;;;;;;;0.43;0.43;;;18.70;79.80;;;;;;5119993;28;20047;-75
2022/09/09 12:55:30;;;;;;;0.70;0.50;;;18.80;79.70;;;;;;5098677;28;20040;-74
2022/09/09 12:57:56;;;;;;;;;;;18.70;79.60;;;;;;5114920;28;20076;-75
2022/09/09 13:00:24;;;;;;;1.50;0.88;;;18.70;79.70;;;;;;5096421;28;19911;-77
2022/09/09 13:02:53;;;;;;;0.77;0.60;;;18.70;79.80;;;;;;5114771;28;20046;-77
2022/09/09 13:05:24;;;;;;;1.40;0.70;;;18.60;79.90;;;;;;5096517;28;20173;-76
2022/09/09 13:07:50;;;;;;;0.90;0.57;;;18.60;80.00;;;;;;5115094;28;20054;-75
2022/09/09 13:10:24;;;;;;;1.23;0.60;;;18.50;80.10;;;;;;5096140;28;20163;-74
2022/09/09 13:12:50;;;;;;;0.80;0.63;;;18.40;80.40;;;;;;5096687;28;20126;-77
2022/09/09 13:15:22;;;;;;;1.17;0.60;;;18.40;80.70;;;;;;5114620;28;20120;-76
2022/09/09 13:18:13;;;;;;;1.13;0.77;;;18.40;80.80;;;;;;5096254;28;20051;-77